Time;durP1;ratioP1;P1;durP2;ratioP2;P2;SDS_P1;SDS_P2;PMS_P1;PMS_P2;Temp;Humidity;BMP_temperature;BMP_pressure;BME280_temperature;BME280_humidity;BME280_pressure;Samples;Min_cycle;Max_cycle;Signal;HPM_P1;HPM_P2
2022/11/14 00:02:40;;;;;;;2.05;1.88;;;19.20;50.30;;;;;;5113639;28;20127;-11
2022/11/14 00:05:25;;;;;;;2.20;2.00;;;19.30;50.40;;;;;;5113281;28;20059;-11
2022/11/14 00:08:24;;;;;;;2.30;2.10;;;19.30;50.30;;;;;;5113362;28;20135;-11
2022/11/14 00:11:08;;;;;;;2.42;2.22;;;19.20;50.30;;;;;;5113439;28;20164;-11
2022/11/14 00:13:52;;;;;;;2.05;1.85;;;19.30;50.30;;;;;;5097916;28;20050;-11
2022/11/14 00:16:37;;;;;;;2.40;2.20;;;19.20;50.30;;;;;;5111427;28;20089;-11
2022/11/14 00:19:21;;;;;;;2.50;2.10;;;19.30;50.30;;;;;;5112864;28;20105;-11
2022/11/14 00:22:06;;;;;;;2.50;2.30;;;19.30;50.30;;;;;;5113313;28;20050;-11
2022/11/14 00:24:50;;;;;;;2.45;2.25;;;19.30;50.20;;;;;;5113289;28;20054;-11
2022/11/14 00:27:34;;;;;;;2.80;2.33;;;19.20;50.20;;;;;;5113003;28;20148;-11
2022/11/14 00:30:18;;;;;;;2.10;1.90;;;19.30;50.30;;;;;;5113215;28;20042;-11
2022/11/14 00:33:02;;;;;;;2.55;2.35;;;19.30;50.20;;;;;;5113336;28;20120;-11
2022/11/14 00:35:51;;;;;;;2.50;2.30;;;19.30;50.20;;;;;;5113397;28;20051;-11
2022/11/14 00:38:35;;;;;;;2.63;2.30;;;19.30;50.20;;;;;;5112889;28;20063;-11
2022/11/14 00:41:20;;;;;;;2.75;2.17;;;19.30;50.20;;;;;;5112786;28;20090;-11
2022/11/14 00:44:05;;;;;;;2.70;2.50;;;19.30;50.20;;;;;;5113332;28;20140;-11
2022/11/14 00:46:49;;;;;;;3.28;2.40;;;19.30;50.20;;;;;;5113115;28;20400;-11
2022/11/14 00:49:33;;;;;;;2.42;2.22;;;19.30;50.10;;;;;;5112730;28;20101;-11
2022/11/14 00:52:17;;;;;;;2.55;2.28;;;19.30;50.10;;;;;;5112901;28;20423;-11
2022/11/14 00:55:01;;;;;;;3.78;2.25;;;19.30;50.10;;;;;;5113135;28;20104;-11
2022/11/14 00:57:45;;;;;;;2.60;2.40;;;19.30;50.10;;;;;;5112478;28;20059;-11
2022/11/14 01:00:29;;;;;;;2.85;2.65;;;19.30;50.10;;;;;;5112889;28;20101;-11
2022/11/14 01:03:13;;;;;;;2.40;2.20;;;19.30;50.10;;;;;;5112712;28;20553;-11
2022/11/14 01:06:06;;;;;;;2.40;2.20;;;19.30;50.10;;;;;;5115953;28;20194;-11
2022/11/14 01:08:51;;;;;;;2.30;2.10;;;19.30;50.00;;;;;;5116565;28;20054;-11
2022/11/14 01:11:35;;;;;;;3.13;2.72;;;19.30;50.00;;;;;;5116564;28;20093;-11
2022/11/14 01:14:20;;;;;;;2.30;2.10;;;19.30;50.50;;;;;;5116000;28;20137;-11
2022/11/14 01:17:06;;;;;;;2.72;2.42;;;19.30;50.00;;;;;;5116232;28;20067;-11
2022/11/14 01:19:50;;;;;;;2.80;2.50;;;19.30;50.00;;;;;;5116076;28;20499;-11
2022/11/14 01:22:34;;;;;;;3.45;2.42;;;19.30;50.00;;;;;;5114758;28;20050;-11
2022/11/14 01:25:18;;;;;;;2.45;2.25;;;19.30;50.00;;;;;;5115712;28;20063;-11
2022/11/14 01:28:08;;;;;;;3.05;2.50;;;19.30;50.00;;;;;;5115527;28;20561;-11
2022/11/14 01:30:52;;;;;;;2.50;2.30;;;19.30;50.00;;;;;;5116282;28;20521;-11
2022/11/14 01:33:36;;;;;;;2.63;2.42;;;19.30;50.00;;;;;;5115501;28;20077;-11
2022/11/14 01:36:21;;;;;;;2.47;2.22;;;19.30;50.00;;;;;;5115859;28;20063;-11
2022/11/14 01:39:05;;;;;;;2.38;2.15;;;19.30;50.00;;;;;;5115635;28;20062;-11
2022/11/14 01:41:49;;;;;;;2.88;2.53;;;19.30;50.00;;;;;;5114521;28;20559;-11
2022/11/14 01:44:45;;;;;;;2.58;2.38;;;19.30;50.00;;;;;;5115531;28;20051;-10
2022/11/14 01:47:31;;;;;;;2.78;2.58;;;19.30;50.00;;;;;;5115060;28;20059;-11
2022/11/14 01:50:16;;;;;;;2.50;2.30;;;19.30;50.00;;;;;;5115343;28;20063;-11
2022/11/14 01:53:01;;;;;;;2.78;2.50;;;19.30;50.00;;;;;;5115554;28;20055;-11
2022/11/14 01:55:45;;;;;;;2.60;2.40;;;19.30;50.00;;;;;;5112086;28;20161;-11
2022/11/14 01:58:34;;;;;;;2.50;2.30;;;19.30;50.00;;;;;;5114890;28;20132;-11
2022/11/14 02:01:18;;;;;;;2.42;2.22;;;19.30;50.00;;;;;;5112588;28;20074;-11
2022/11/14 02:04:05;;;;;;;2.60;2.30;;;19.30;50.00;;;;;;5115434;28;20100;-11
2022/11/14 02:06:54;;;;;;;2.50;2.30;;;19.30;50.00;;;;;;5115273;28;20505;-11
2022/11/14 02:09:44;;;;;;;2.90;2.65;;;19.30;50.00;;;;;;5115025;28;20415;-11
2022/11/14 02:12:28;;;;;;;2.50;2.30;;;19.30;50.00;;;;;;5114816;28;20058;-11
2022/11/14 02:15:13;;;;;;;2.42;2.22;;;19.30;50.00;;;;;;5114735;28;20501;-11
2022/11/14 02:18:00;;;;;;;2.92;2.63;;;19.30;50.00;;;;;;5114882;28;20146;-11
2022/11/14 02:20:44;;;;;;;2.58;2.38;;;19.30;50.50;;;;;;5114936;28;20502;-11
2022/11/14 02:23:30;;;;;;;2.83;2.10;;;19.30;50.00;;;;;;5114830;28;20063;-11
2022/11/14 02:26:19;;;;;;;3.17;2.88;;;19.30;50.00;;;;;;5115169;28;20445;-11
2022/11/14 02:29:08;;;;;;;2.72;2.42;;;19.30;50.00;;;;;;5115010;28;20058;-11
2022/11/14 02:31:53;;;;;;;2.60;2.40;;;19.30;50.00;;;;;;5115036;28;20073;-11
2022/11/14 02:34:37;;;;;;;2.53;2.33;;;19.30;50.00;;;;;;5114625;28;20105;-11
2022/11/14 02:37:21;;;;;;;2.30;2.10;;;19.30;50.00;;;;;;5114565;28;20098;-11
2022/11/14 02:40:07;;;;;;;2.60;2.40;;;19.30;50.00;;;;;;5115168;28;20457;-11
2022/11/14 02:42:51;;;;;;;2.80;2.60;;;19.30;50.00;;;;;;5115108;28;20050;-11
2022/11/14 02:45:35;;;;;;;2.90;2.50;;;19.30;50.00;;;;;;5110940;28;20418;-11
2022/11/14 02:48:19;;;;;;;2.10;1.90;;;19.30;49.90;;;;;;5114565;28;20058;-11
2022/11/14 02:51:04;;;;;;;2.85;2.65;;;19.40;49.90;;;;;;5114719;28;20114;-11
2022/11/14 02:53:48;;;;;;;2.60;2.40;;;19.40;49.80;;;;;;5114566;28;20054;-11
2022/11/14 02:56:32;;;;;;;2.80;2.47;;;19.40;49.70;;;;;;5114372;28;20189;-11
2022/11/14 02:59:17;;;;;;;2.50;2.30;;;19.50;49.70;;;;;;5114199;28;20061;-11
2022/11/14 03:02:01;;;;;;;2.80;2.55;;;19.50;49.60;;;;;;5114542;28;20089;-11
2022/11/14 03:04:45;;;;;;;2.65;2.45;;;19.50;49.60;;;;;;5114478;28;20477;-11
2022/11/14 03:07:30;;;;;;;2.72;2.47;;;19.50;49.50;;;;;;5113909;28;20086;-11
2022/11/14 03:10:14;;;;;;;2.97;2.67;;;19.60;49.50;;;;;;5114098;28;20544;-11
2022/11/14 03:12:58;;;;;;;2.65;2.45;;;19.60;49.40;;;;;;5114042;28;20101;-11
2022/11/14 03:15:42;;;;;;;2.83;2.45;;;19.60;49.40;;;;;;5113967;28;20548;-11
2022/11/14 03:18:27;;;;;;;3.13;2.50;;;19.60;49.30;;;;;;5113950;28;20128;-11
2022/11/14 03:21:14;;;;;;;2.55;2.25;;;19.60;49.30;;;;;;5113848;28;20105;-11
2022/11/14 03:23:59;;;;;;;2.60;2.40;;;19.70;49.30;;;;;;5113921;28;20085;-11
2022/11/14 03:26:45;;;;;;;2.70;2.50;;;19.70;49.20;;;;;;5113154;28;20062;-11
2022/11/14 03:29:30;;;;;;;2.67;2.47;;;19.70;49.10;;;;;;5113690;28;20053;-11
2022/11/14 03:32:14;;;;;;;3.70;2.65;;;19.70;49.10;;;;;;5113955;28;20059;-11
2022/11/14 03:34:58;;;;;;;2.97;2.67;;;19.80;49.10;;;;;;5114111;28;20055;-11
2022/11/14 03:37:42;;;;;;;2.88;2.58;;;19.80;49.00;;;;;;5098571;28;20493;-11
2022/11/14 03:40:26;;;;;;;3.05;2.75;;;19.80;49.00;;;;;;5113754;28;20058;-11
2022/11/14 03:43:10;;;;;;;2.58;2.38;;;19.80;48.90;;;;;;5113871;28;20100;-11
2022/11/14 03:45:58;;;;;;;2.40;2.20;;;19.80;48.90;;;;;;5113869;28;20460;-11
2022/11/14 03:48:42;;;;;;;3.00;2.45;;;19.80;48.90;;;;;;5113874;28;20061;-11
2022/11/14 03:51:26;;;;;;;2.45;2.25;;;19.80;48.90;;;;;;5113784;28;20058;-11
2022/11/14 03:54:10;;;;;;;3.03;2.40;;;19.80;48.90;;;;;;5113343;28;20081;-11
2022/11/14 03:56:54;;;;;;;3.45;2.78;;;19.90;48.90;;;;;;5113439;28;20097;-11
2022/11/14 03:59:38;;;;;;;2.53;2.33;;;19.90;48.90;;;;;;5113300;28;20089;-11
2022/11/14 04:02:22;;;;;;;3.28;2.90;;;19.90;48.90;;;;;;5113375;28;20089;-11
2022/11/14 04:05:08;;;;;;;3.03;2.30;;;19.90;48.90;;;;;;5113601;28;20520;-11
2022/11/14 04:07:52;;;;;;;2.80;2.53;;;19.90;49.30;;;;;;5112966;28;20054;-11
2022/11/14 04:10:36;;;;;;;2.67;2.47;;;19.90;48.80;;;;;;5113212;28;20108;-11
2022/11/14 04:13:20;;;;;;;2.65;2.42;;;19.90;48.80;;;;;;5113125;28;20054;-11
2022/11/14 04:16:05;;;;;;;2.78;2.42;;;19.90;48.80;;;;;;5113074;28;20138;-11
2022/11/14 04:18:50;;;;;;;2.90;2.60;;;19.90;48.70;;;;;;5112927;28;20552;-11
2022/11/14 04:21:34;;;;;;;2.70;2.42;;;20.00;48.70;;;;;;5110488;28;20049;-11
2022/11/14 04:24:19;;;;;;;2.60;2.40;;;20.00;48.70;;;;;;5113345;28;20118;-11
2022/11/14 04:27:03;;;;;;;2.80;2.60;;;20.00;48.70;;;;;;5113539;28;20057;-11
2022/11/14 04:29:47;;;;;;;2.47;2.28;;;20.00;48.70;;;;;;5109329;28;20108;-11
2022/11/14 04:32:31;;;;;;;2.80;2.50;;;20.00;48.70;;;;;;5112875;28;20124;-11
2022/11/14 04:35:16;;;;;;;2.88;2.60;;;20.00;48.70;;;;;;5113212;28;20459;-11
2022/11/14 04:37:59;;;;;;;2.70;2.50;;;20.00;48.70;;;;;;5114230;28;20089;-11
2022/11/14 04:40:52;;;;;;;2.80;2.50;;;20.00;48.70;;;;;;5116476;28;20509;-11
2022/11/14 04:43:37;;;;;;;2.88;2.55;;;20.00;48.70;;;;;;5116643;28;20113;-11
2022/11/14 04:46:21;;;;;;;2.55;2.35;;;20.00;48.70;;;;;;5116977;28;20047;-11
2022/11/14 04:49:05;;;;;;;3.05;2.42;;;20.00;48.60;;;;;;5116532;28;20059;-11
2022/11/14 04:51:49;;;;;;;2.95;2.42;;;20.00;48.60;;;;;;5116678;28;20506;-11
2022/11/14 04:54:34;;;;;;;2.63;2.42;;;20.00;48.60;;;;;;5116518;28;20108;-11
2022/11/14 04:57:18;;;;;;;2.65;2.45;;;20.00;48.60;;;;;;5116281;28;20100;-11
2022/11/14 05:00:04;;;;;;;2.70;2.42;;;20.00;48.70;;;;;;5116152;28;20465;-11
2022/11/14 05:02:48;;;;;;;3.03;2.63;;;20.00;48.60;;;;;;5116394;28;20051;-11
2022/11/14 05:05:32;;;;;;;2.60;2.33;;;20.00;48.50;;;;;;5116124;28;20058;-11
2022/11/14 05:08:16;;;;;;;2.92;2.63;;;20.00;48.60;;;;;;5115826;28;20063;-11
2022/11/14 05:11:01;;;;;;;2.88;2.58;;;20.00;48.50;;;;;;5115896;28;21017;-11
2022/11/14 05:13:45;;;;;;;2.42;2.20;;;20.00;48.50;;;;;;5115912;28;20051;-11
2022/11/14 05:16:30;;;;;;;2.63;2.42;;;20.00;48.50;;;;;;5116216;28;20062;-11
2022/11/14 05:19:15;;;;;;;2.47;2.28;;;20.00;49.10;;;;;;5115798;28;20054;-11
2022/11/14 05:22:00;;;;;;;2.90;2.60;;;20.00;48.60;;;;;;5115857;28;20053;-11
2022/11/14 05:24:44;;;;;;;2.40;2.20;;;20.00;48.60;;;;;;5115840;28;20054;-11
2022/11/14 05:27:28;;;;;;;2.83;2.53;;;20.00;48.50;;;;;;5115702;28;20054;-11
2022/11/14 05:30:14;;;;;;;2.80;2.60;;;20.00;48.50;;;;;;5116273;28;20422;-11
2022/11/14 05:32:59;;;;;;;2.60;2.40;;;20.00;48.60;;;;;;5115983;28;20096;-11
2022/11/14 05:35:43;;;;;;;2.50;2.30;;;20.10;48.60;;;;;;5115847;28;20078;-11
2022/11/14 05:38:27;;;;;;;2.30;2.10;;;20.00;48.60;;;;;;5115593;28;20065;-11
2022/11/14 05:41:18;;;;;;;3.17;2.88;;;20.00;48.60;;;;;;5112695;28;20050;-11
2022/11/14 05:44:03;;;;;;;;;;;20.00;48.60;;;;;;5115643;28;20112;-11
2022/11/14 05:46:48;;;;;;;2.97;2.65;;;20.00;48.60;;;;;;5112975;28;19961;-11
2022/11/14 05:49:32;;;;;;;2.75;2.55;;;20.00;48.60;;;;;;5114676;28;20102;-11
2022/11/14 05:52:16;;;;;;;3.10;2.60;;;20.00;48.60;;;;;;5115416;28;20059;-11
2022/11/14 05:55:01;;;;;;;2.92;2.65;;;20.00;48.60;;;;;;5115893;28;20057;-11
2022/11/14 05:57:45;;;;;;;2.60;2.40;;;20.00;48.60;;;;;;5115379;28;20437;-11
2022/11/14 06:00:29;;;;;;;2.80;2.60;;;20.00;48.60;;;;;;5115835;28;20566;-11
2022/11/14 06:03:15;;;;;;;3.33;2.88;;;20.00;48.60;;;;;;5115202;28;20135;-11
2022/11/14 06:06:01;;;;;;;3.13;2.85;;;20.00;48.60;;;;;;5115713;28;20142;-11
2022/11/14 06:08:46;;;;;;;2.50;2.30;;;20.00;48.60;;;;;;5115456;28;20062;-11
2022/11/14 06:11:30;;;;;;;2.65;2.45;;;20.00;48.60;;;;;;5115373;28;20046;-11
2022/11/14 06:14:15;;;;;;;2.85;2.55;;;20.00;48.60;;;;;;5114893;28;20054;-11
2022/11/14 06:17:00;;;;;;;2.90;2.60;;;20.00;48.60;;;;;;5114948;28;20090;-11
2022/11/14 06:19:44;;;;;;;3.22;2.92;;;20.00;48.50;;;;;;5114294;28;20059;-11
2022/11/14 06:22:28;;;;;;;2.35;2.15;;;20.00;48.50;;;;;;5115205;28;20101;-11
2022/11/14 06:25:12;;;;;;;3.05;2.75;;;20.00;48.60;;;;;;5114796;28;20113;-11
2022/11/14 06:27:57;;;;;;;3.00;2.67;;;20.00;48.50;;;;;;5114733;28;20075;-11
2022/11/14 06:30:41;;;;;;;2.58;2.38;;;20.00;48.50;;;;;;5114997;28;20054;-11
2022/11/14 06:33:34;;;;;;;2.78;2.53;;;20.00;48.60;;;;;;5113089;28;20456;-11
2022/11/14 06:36:18;;;;;;;2.50;2.30;;;20.00;48.60;;;;;;5115144;28;20054;-11
2022/11/14 06:39:02;;;;;;;3.13;2.83;;;20.00;48.60;;;;;;5114478;28;20058;-11
2022/11/14 06:41:48;;;;;;;2.65;2.42;;;20.00;48.50;;;;;;5114716;28;20059;-11
2022/11/14 06:44:32;;;;;;;3.40;2.80;;;20.00;48.50;;;;;;5099266;28;20150;-11
2022/11/14 06:47:16;;;;;;;3.33;2.85;;;20.10;48.50;;;;;;5114585;28;20142;-11
2022/11/14 06:50:00;;;;;;;3.00;2.70;;;20.10;48.40;;;;;;5114428;28;20063;-11
2022/11/14 06:52:45;;;;;;;3.38;2.80;;;20.10;48.40;;;;;;5114565;28;20123;-11
2022/11/14 06:55:29;;;;;;;3.10;2.80;;;20.10;48.40;;;;;;5114308;28;20165;-11
2022/11/14 06:58:13;;;;;;;3.08;2.78;;;20.00;48.40;;;;;;5114180;28;20117;-11
2022/11/14 07:01:04;;;;;;;3.13;2.83;;;20.00;48.40;;;;;;5114396;28;20108;-11
2022/11/14 07:03:48;;;;;;;3.00;2.70;;;20.00;48.40;;;;;;5098562;28;20089;-11
2022/11/14 07:06:32;;;;;;;3.33;3.03;;;20.10;48.50;;;;;;5114306;28;20389;-11
2022/11/14 07:09:18;;;;;;;2.60;2.40;;;20.10;48.40;;;;;;5113839;28;20086;-11
2022/11/14 07:12:02;;;;;;;2.70;2.50;;;20.10;48.40;;;;;;5113456;28;20071;-11
2022/11/14 07:14:46;;;;;;;3.63;3.10;;;20.10;48.50;;;;;;5113063;28;20070;-11
2022/11/14 07:17:35;;;;;;;5.22;3.15;;;20.00;48.20;;;;;;5113244;28;20066;-11
2022/11/14 07:20:19;;;;;;;6.80;3.00;;;20.00;51.00;;;;;;5113146;28;20078;-11
2022/11/14 07:23:03;;;;;;;3.50;3.15;;;20.00;53.40;;;;;;5113315;28;20394;-12
2022/11/14 07:25:47;;;;;;;4.57;3.15;;;20.00;52.80;;;;;;5113203;28;20407;-12
2022/11/14 07:28:33;;;;;;;3.80;3.05;;;20.00;52.80;;;;;;5112711;28;20358;-9
2022/11/14 07:31:19;;;;;;;7.07;3.17;;;20.00;52.60;;;;;;5113275;28;21033;-10
2022/11/14 07:34:04;;;;;;;4.00;3.17;;;20.00;52.50;;;;;;5112450;28;20090;-10
2022/11/14 07:36:49;;;;;;;3.47;2.88;;;20.00;52.30;;;;;;5113044;28;20147;-10
2022/11/14 07:39:33;;;;;;;4.68;3.50;;;20.00;52.20;;;;;;5112902;28;20058;-10
2022/11/14 07:42:17;;;;;;;3.17;2.88;;;20.00;52.10;;;;;;5112930;28;20059;-10
2022/11/14 07:45:02;;;;;;;4.05;3.13;;;20.00;51.90;;;;;;5097411;28;20458;-10
2022/11/14 07:47:46;;;;;;;3.88;2.72;;;20.00;51.80;;;;;;5112621;28;20054;-10
2022/11/14 07:50:30;;;;;;;4.95;2.88;;;20.10;51.80;;;;;;5111549;28;20104;-11
2022/11/14 07:53:16;;;;;;;3.30;2.70;;;20.00;51.60;;;;;;5112671;28;20090;-10
2022/11/14 07:56:05;;;;;;;3.63;2.70;;;20.10;51.60;;;;;;5112864;28;20061;-11
2022/11/14 07:58:49;;;;;;;3.28;2.97;;;20.00;52.00;;;;;;5112296;28;20062;-10
2022/11/14 08:01:33;;;;;;;3.50;2.97;;;20.10;51.40;;;;;;5112326;28;20082;-10
2022/11/14 08:04:19;;;;;;;3.72;2.97;;;20.10;51.30;;;;;;5112477;28;20082;-10
2022/11/14 08:07:03;;;;;;;3.22;2.88;;;20.10;51.30;;;;;;5112340;28;20090;-11
2022/11/14 08:09:47;;;;;;;4.35;3.30;;;20.10;51.20;;;;;;5112430;28;20537;-11
2022/11/14 08:12:31;;;;;;;4.18;3.00;;;20.10;51.10;;;;;;5111834;28;20054;-11
2022/11/14 08:15:16;;;;;;;3.38;2.95;;;20.10;51.10;;;;;;5108511;28;20493;-11
2022/11/14 08:18:01;;;;;;;4.30;3.03;;;20.10;51.00;;;;;;5112058;28;20220;-11
2022/11/14 08:20:46;;;;;;;3.67;3.25;;;20.10;50.90;;;;;;5112525;28;20059;-11
2022/11/14 08:23:30;;;;;;;3.55;3.17;;;20.10;50.90;;;;;;5112222;28;20090;-11
2022/11/14 08:26:15;;;;;;;3.30;3.00;;;20.10;50.80;;;;;;5112002;28;20080;-10
2022/11/14 08:28:59;;;;;;;4.38;2.75;;;20.10;50.80;;;;;;5110728;28;20069;-11
2022/11/14 08:31:45;;;;;;;4.25;3.28;;;20.10;50.70;;;;;;5111854;28;20116;-10
2022/11/14 08:34:29;;;;;;;3.13;2.67;;;20.10;50.70;;;;;;5111911;28;20059;-10
2022/11/14 08:37:14;;;;;;;3.80;3.40;;;20.10;50.60;;;;;;5111770;28;20074;-10
2022/11/14 08:39:58;;;;;;;4.43;3.17;;;20.10;50.60;;;;;;5111862;28;20065;-10
2022/11/14 08:42:42;;;;;;;4.47;3.10;;;20.10;50.60;;;;;;5110569;28;20058;-11
2022/11/14 08:45:27;;;;;;;4.97;3.70;;;20.10;50.60;;;;;;5112655;28;20050;-10
2022/11/14 08:48:11;;;;;;;3.53;3.22;;;20.10;50.50;;;;;;5112168;28;20149;-11
2022/11/14 08:50:56;;;;;;;3.47;3.10;;;20.10;50.50;;;;;;5110986;28;20080;-10
2022/11/14 08:53:40;;;;;;;3.75;3.38;;;20.10;50.50;;;;;;5110869;28;20102;-11
2022/11/14 08:56:24;;;;;;;4.05;3.10;;;20.10;50.40;;;;;;5110845;28;20059;-11
2022/11/14 08:59:08;;;;;;;4.57;3.05;;;20.10;50.40;;;;;;5111985;28;20508;-10
2022/11/14 09:01:52;;;;;;;3.15;2.85;;;20.10;50.40;;;;;;5093973;28;20108;-12
2022/11/14 09:04:37;;;;;;;3.53;3.22;;;20.10;50.40;;;;;;5105390;28;20074;-11
2022/11/14 09:07:21;;;;;;;4.70;3.83;;;20.10;50.30;;;;;;5109930;28;20110;-12
2022/11/14 09:10:06;;;;;;;4.68;3.50;;;20.10;50.30;;;;;;5110598;28;20062;-11
2022/11/14 09:12:58;;;;;;;4.80;3.92;;;20.10;50.30;;;;;;5110834;28;20054;-11
2022/11/14 09:15:42;;;;;;;;;;;20.10;50.30;;;;;;5111536;28;20142;-11
2022/11/14 09:18:26;;;;;;;4.15;3.20;;;20.10;50.20;;;;;;5111410;28;19922;-10
2022/11/14 09:21:11;;;;;;;4.07;3.53;;;20.10;50.20;;;;;;5107931;28;20054;-10
2022/11/14 09:23:56;;;;;;;4.75;3.60;;;20.10;50.20;;;;;;5110576;28;20108;-11
2022/11/14 09:26:40;;;;;;;3.72;3.33;;;20.10;50.20;;;;;;5114064;28;20466;-10
2022/11/14 09:29:25;;;;;;;3.88;3.13;;;20.10;50.20;;;;;;5115539;28;20399;-11
2022/11/14 09:32:09;;;;;;;4.60;3.70;;;20.10;50.20;;;;;;5110980;28;20070;-10
2022/11/14 09:34:54;;;;;;;4.15;3.20;;;20.10;50.20;;;;;;5114951;28;20109;-11
2022/11/14 09:37:39;;;;;;;3.78;3.15;;;20.10;50.10;;;;;;5115070;28;20054;-11
2022/11/14 09:40:23;;;;;;;3.80;3.40;;;20.10;50.10;;;;;;5114631;28;20078;-11
2022/11/14 09:43:33;;;;;;;3.80;3.38;;;20.10;50.10;;;;;;5115044;28;20413;-11
2022/11/14 09:46:24;;;;;;;4.07;3.22;;;20.10;50.10;;;;;;5114324;28;20097;-11
2022/11/14 09:49:32;;;;;;;3.80;3.40;;;20.10;50.00;;;;;;5114145;28;20104;-11
2022/11/14 09:52:38;;;;;;;4.50;3.42;;;20.10;50.00;;;;;;5109438;28;20085;-11
2022/11/14 09:55:33;;;;;;;3.80;3.50;;;20.10;50.00;;;;;;5113209;28;20151;-11
2022/11/14 09:58:20;;;;;;;4.15;3.10;;;20.10;50.00;;;;;;5114282;28;20100;-11
2022/11/14 10:01:33;;;;;;;3.20;2.83;;;20.20;50.00;;;;;;5114695;28;20097;-11
2022/11/14 10:04:44;;;;;;;3.92;3.50;;;20.20;50.00;;;;;;5082027;28;20053;-11
2022/11/14 10:08:08;;;;;;;3.83;3.30;;;20.10;49.90;;;;;;5113896;28;20458;-11
2022/11/14 10:11:18;;;;;;;4.13;3.20;;;20.20;49.90;;;;;;5113687;28;20063;-11
2022/11/14 10:14:20;;;;;;;4.95;2.92;;;20.20;50.40;;;;;;5113943;28;20555;-11
2022/11/14 10:17:12;;;;;;;3.40;3.10;;;20.20;49.80;;;;;;5114149;28;20403;-11
2022/11/14 10:19:56;;;;;;;4.30;3.65;;;20.20;49.80;;;;;;5113778;28;20146;-11
2022/11/14 10:23:12;;;;;;;4.05;3.47;;;20.20;49.80;;;;;;5114006;28;20356;-11
2022/11/14 10:26:22;;;;;;;3.80;3.35;;;20.20;49.80;;;;;;5114213;28;20062;-11
2022/11/14 10:29:44;;;;;;;4.15;3.75;;;20.20;49.70;;;;;;5113239;28;20097;-11
2022/11/14 10:32:54;;;;;;;3.78;3.40;;;20.20;49.70;;;;;;5113943;28;20078;-11
2022/11/14 10:35:44;;;;;;;4.10;3.13;;;20.20;49.70;;;;;;5114304;28;20138;-11
2022/11/14 10:38:55;;;;;;;4.47;3.40;;;20.20;49.70;;;;;;5114463;28;20124;-11
2022/11/14 10:41:41;;;;;;;3.80;3.35;;;20.20;49.80;;;;;;5112012;28;20529;-11
2022/11/14 10:44:32;;;;;;;3.70;3.05;;;20.20;49.80;;;;;;5114357;28;20050;-11
2022/11/14 10:47:21;;;;;;;4.30;3.47;;;20.20;49.80;;;;;;5113448;28;20061;-12
2022/11/14 10:50:37;;;;;;;4.10;3.50;;;20.20;49.80;;;;;;5112707;28;20081;-11
2022/11/14 10:53:36;;;;;;;4.53;3.78;;;20.20;49.80;;;;;;5114459;28;20496;-11
2022/11/14 10:56:20;;;;;;;3.58;3.20;;;20.20;49.70;;;;;;5111526;28;20545;-12
2022/11/14 10:59:07;;;;;;;5.50;3.22;;;20.20;49.80;;;;;;5112105;28;20063;-11
2022/11/14 11:01:53;;;;;;;5.03;3.40;;;20.20;49.70;;;;;;5113168;28;20092;-11
2022/11/14 11:04:39;;;;;;;4.05;3.00;;;20.20;49.70;;;;;;5109405;28;20071;-11
2022/11/14 11:13:35;;;;;;;4.25;3.47;;;20.20;49.60;;;;;;5113975;28;20555;-11
2022/11/14 11:16:26;;;;;;;4.95;3.65;;;20.20;49.60;;;;;;5113611;28;20506;-11
2022/11/14 11:19:26;;;;;;;4.28;3.78;;;20.20;49.60;;;;;;5113988;28;20050;-11
2022/11/14 11:22:29;;;;;;;4.22;3.35;;;20.20;49.50;;;;;;5108971;28;20085;-11
2022/11/14 11:25:26;;;;;;;3.65;3.35;;;20.20;49.50;;;;;;5109155;28;20054;-10
2022/11/14 11:28:20;;;;;;;4.55;4.07;;;20.20;49.50;;;;;;5113647;28;20535;-10
2022/11/14 11:31:06;;;;;;;4.50;3.65;;;20.20;49.50;;;;;;5096175;28;20482;-10
2022/11/14 11:33:51;;;;;;;3.58;3.28;;;20.20;49.50;;;;;;5113157;28;20066;-10
2022/11/14 11:36:46;;;;;;;3.78;3.35;;;20.20;49.50;;;;;;5113177;28;20062;-10
2022/11/14 11:39:34;;;;;;;5.35;4.03;;;20.20;49.70;;;;;;5113424;28;20407;-10
2022/11/14 11:42:34;;;;;;;4.75;3.70;;;20.20;49.80;;;;;;5110922;28;20476;-10
2022/11/14 11:45:19;;;;;;;5.25;3.65;;;20.30;49.80;;;;;;5112970;28;20070;-10
2022/11/14 11:48:21;;;;;;;5.13;3.42;;;20.20;49.70;;;;;;5111088;28;20124;-13
2022/11/14 11:51:16;;;;;;;4.32;3.92;;;20.30;49.80;;;;;;5113218;28;20053;-10
2022/11/14 11:54:11;;;;;;;7.18;3.67;;;20.20;49.70;;;;;;5113685;28;20395;-11
2022/11/14 11:57:00;;;;;;;3.97;3.58;;;20.20;49.70;;;;;;5111905;28;20055;-12
2022/11/14 11:59:48;;;;;;;4.40;3.67;;;20.20;49.70;;;;;;5111359;28;20098;-12
2022/11/14 12:02:38;;;;;;;4.40;3.63;;;20.20;49.70;;;;;;5108760;28;20050;-12
2022/11/14 12:05:41;;;;;;;4.45;3.60;;;20.20;49.70;;;;;;5112188;28;20051;-11
2022/11/14 12:08:51;;;;;;;4.47;3.75;;;20.20;49.70;;;;;;5112318;28;20124;-11
2022/11/14 12:11:39;;;;;;;5.53;3.72;;;20.20;49.70;;;;;;5112220;28;20054;-11
2022/11/14 12:14:36;;;;;;;5.25;4.03;;;20.20;49.70;;;;;;5097649;28;20078;-11
2022/11/14 12:17:33;;;;;;;4.45;3.60;;;20.20;49.70;;;;;;5113193;28;20105;-11
2022/11/14 12:20:29;;;;;;;3.65;3.35;;;20.20;49.70;;;;;;5111149;28;20078;-11
2022/11/14 12:23:31;;;;;;;3.88;3.40;;;20.20;49.70;;;;;;5112776;28;20059;-11
2022/11/14 12:26:40;;;;;;;5.30;3.95;;;20.20;49.70;;;;;;5111742;28;20059;-11
2022/11/14 12:30:01;;;;;;;6.50;4.40;;;20.20;49.80;;;;;;5112649;28;20132;-10
2022/11/14 12:32:56;;;;;;;4.75;3.83;;;20.20;49.70;;;;;;5112535;28;20058;-11
2022/11/14 12:35:58;;;;;;;5.57;4.40;;;20.20;50.20;;;;;;5109894;28;20100;-11
2022/11/14 12:38:47;;;;;;;5.88;4.57;;;20.20;50.20;;;;;;5112634;28;20063;-11
2022/11/14 12:41:35;;;;;;;6.22;4.35;;;20.20;49.60;;;;;;5112384;28;20592;-10
2022/11/14 12:44:26;;;;;;;5.22;4.07;;;20.20;49.60;;;;;;5112226;28;20507;-10
2022/11/14 12:47:16;;;;;;;6.97;4.35;;;20.20;49.50;;;;;;5112308;28;20115;-10
2022/11/14 12:50:05;;;;;;;5.82;4.50;;;20.20;49.50;;;;;;5097226;28;20063;-10
2022/11/14 12:52:51;;;;;;;5.70;4.50;;;20.20;49.50;;;;;;5112122;28;20112;-11
2022/11/14 12:55:45;;;;;;;5.43;4.38;;;20.20;49.40;;;;;;5097057;28;20059;-10
2022/11/14 12:58:35;;;;;;;5.53;4.30;;;20.20;49.40;;;;;;5112580;28;20058;-11
2022/11/14 13:01:36;;;;;;;5.40;4.40;;;20.20;49.40;;;;;;5114783;28;20406;-12
2022/11/14 13:04:42;;;;;;;5.95;4.88;;;20.20;49.30;;;;;;5100353;28;20063;-10
2022/11/14 13:07:36;;;;;;;5.57;4.50;;;20.20;49.30;;;;;;5116031;28;20108;-11
2022/11/14 13:10:30;;;;;;;5.28;4.00;;;20.20;49.20;;;;;;5115652;28;20197;-11
2022/11/14 13:22:39;;;;;;;4.88;4.35;;;20.30;49.10;;;;;;5115380;28;20066;-10
2022/11/14 13:25:24;;;;;;;9.15;5.35;;;20.30;49.10;;;;;;5115066;28;20140;-10
2022/11/14 13:28:37;;;;;;;6.45;5.50;;;20.30;49.00;;;;;;5115535;28;20067;-11
2022/11/14 13:31:24;;;;;;;5.28;4.45;;;20.30;49.10;;;;;;5115328;28;20058;-11
2022/11/14 13:34:37;;;;;;;6.40;4.50;;;20.30;49.10;;;;;;5115419;28;20081;-11
2022/11/14 13:38:15;;;;;;;5.43;4.57;;;20.30;49.10;;;;;;5115205;28;20061;-11
2022/11/14 13:41:18;;;;;;;5.55;4.28;;;20.20;49.10;;;;;;5016047;28;20120;-12
2022/11/14 13:44:34;;;;;;;6.45;4.30;;;20.20;49.10;;;;;;5113618;28;20062;-11
2022/11/14 13:47:28;;;;;;;5.95;4.80;;;20.20;49.20;;;;;;5115081;28;20046;-11
2022/11/14 13:50:17;;;;;;;5.88;4.72;;;20.20;49.20;;;;;;5115169;28;20066;-11
2022/11/14 13:53:12;;;;;;;5.40;4.47;;;20.20;49.20;;;;;;5115379;28;20127;-11
2022/11/14 13:56:05;;;;;;;5.90;4.68;;;20.20;49.20;;;;;;5115188;28;20055;-11
2022/11/14 13:59:28;;;;;;;5.38;4.68;;;20.20;49.30;;;;;;5115207;28;20096;-11
2022/11/14 14:02:39;;;;;;;5.47;4.80;;;20.20;49.30;;;;;;5114800;28;20078;-11
2022/11/14 14:05:48;;;;;;;4.97;4.17;;;20.20;49.30;;;;;;5115128;28;20135;-11
2022/11/14 14:08:46;;;;;;;5.00;4.45;;;20.20;49.30;;;;;;5114875;28;20189;-11
2022/11/14 14:11:46;;;;;;;5.45;4.68;;;20.20;49.30;;;;;;5113916;28;20120;-11
2022/11/14 14:14:47;;;;;;;5.13;4.60;;;20.20;49.80;;;;;;5113540;28;20077;-11
2022/11/14 14:17:41;;;;;;;;;;;20.20;49.30;;;;;;5115020;28;20058;-11
2022/11/14 14:20:47;;;;;;;5.70;4.45;;;20.20;49.30;;;;;;5114703;28;20453;-11
2022/11/14 14:23:59;;;;;;;5.82;4.38;;;20.20;49.30;;;;;;5114632;28;20055;-11
2022/11/14 14:27:04;;;;;;;6.82;5.10;;;20.10;49.30;;;;;;5114470;28;20556;-11
2022/11/14 14:30:02;;;;;;;6.15;4.82;;;20.10;49.30;;;;;;5114314;28;20054;-11
2022/11/14 14:33:07;;;;;;;6.32;4.82;;;20.20;49.40;;;;;;5114448;28;20066;-11
2022/11/14 14:35:53;;;;;;;5.97;5.00;;;20.10;49.30;;;;;;5114480;28;20070;-11
2022/11/14 14:38:37;;;;;;;5.47;4.63;;;20.10;49.30;;;;;;5115060;28;20076;-11
2022/11/14 14:41:22;;;;;;;6.63;5.30;;;20.10;49.30;;;;;;5114836;28;20457;-11
2022/11/14 14:44:28;;;;;;;6.20;4.95;;;20.10;49.30;;;;;;5114387;28;20120;-11
2022/11/14 14:47:31;;;;;;;5.55;4.97;;;20.10;49.30;;;;;;5114731;28;20415;-11
2022/11/14 14:50:19;;;;;;;7.03;5.05;;;20.10;49.30;;;;;;5114425;28;20116;-11
2022/11/14 14:53:05;;;;;;;6.60;4.90;;;20.10;49.30;;;;;;5112922;28;20069;-11
2022/11/14 14:56:01;;;;;;;6.55;5.05;;;20.10;49.30;;;;;;5114670;28;20086;-11
2022/11/14 14:58:45;;;;;;;6.18;4.63;;;20.10;49.30;;;;;;5114574;28;20058;-11